sensor_id;sensor_type;location;lat;lon;timestamp;temperature;humidity
2749;DHT22;1382;52.142;11.618;2022-09-24T00:02:15;18.10;44.60
2749;DHT22;1382;52.142;11.618;2022-09-24T00:04:42;18.10;44.40
2749;DHT22;1382;52.142;11.618;2022-09-24T00:07:08;18.10;44.50
2749;DHT22;1382;52.142;11.618;2022-09-24T00:09:35;18.10;44.50
2749;DHT22;1382;52.142;11.618;2022-09-24T00:12:02;18.10;44.60
2749;DHT22;1382;52.142;11.618;2022-09-24T00:14:29;18.20;44.90
2749;DHT22;1382;52.142;11.618;2022-09-24T00:16:58;18.20;44.60
2749;DHT22;1382;52.142;11.618;2022-09-24T00:19:24;18.00;44.40
2749;DHT22;1382;52.142;11.618;2022-09-24T00:21:51;18.20;44.60
2749;DHT22;1382;52.142;11.618;2022-09-24T00:24:18;18.00;44.50
2749;DHT22;1382;52.142;11.618;2022-09-24T00:26:45;18.10;44.60
2749;DHT22;1382;52.142;11.618;2022-09-24T00:29:15;18.00;44.60
2749;DHT22;1382;52.142;11.618;2022-09-24T00:31:42;18.00;44.40
2749;DHT22;1382;52.142;11.618;2022-09-24T00:34:10;18.00;44.40
2749;DHT22;1382;52.142;11.618;2022-09-24T00:36:37;17.90;44.50
2749;DHT22;1382;52.142;11.618;2022-09-24T00:39:05;17.90;44.40
2749;DHT22;1382;52.142;11.618;2022-09-24T00:41:34;17.90;44.60
2749;DHT22;1382;52.142;11.618;2022-09-24T00:47:23;17.90;44.50
2749;DHT22;1382;52.142;11.618;2022-09-24T00:49:55;18.00;45.00
2749;DHT22;1382;52.142;11.618;2022-09-24T00:52:24;17.80;44.80
2749;DHT22;1382;52.142;11.618;2022-09-24T00:54:51;17.80;44.60
2749;DHT22;1382;52.142;11.618;2022-09-24T00:57:18;17.80;44.60
2749;DHT22;1382;52.142;11.618;2022-09-24T00:59:45;17.80;44.70
2749;DHT22;1382;52.142;11.618;2022-09-24T01:02:12;17.90;44.60
2749;DHT22;1382;52.142;11.618;2022-09-24T01:04:39;17.80;44.90
2749;DHT22;1382;52.142;11.618;2022-09-24T01:07:07;17.80;44.70
2749;DHT22;1382;52.142;11.618;2022-09-24T01:09:34;17.80;44.80
2749;DHT22;1382;52.142;11.618;2022-09-24T01:12:04;17.80;44.80
2749;DHT22;1382;52.142;11.618;2022-09-24T01:14:49;17.80;44.70
2749;DHT22;1382;52.142;11.618;2022-09-24T01:17:25;17.80;45.10
2749;DHT22;1382;52.142;11.618;2022-09-24T01:20:36;17.70;44.90
2749;DHT22;1382;52.142;11.618;2022-09-24T01:23:27;17.80;44.70
2749;DHT22;1382;52.142;11.618;2022-09-24T01:26:11;17.70;45.00
2749;DHT22;1382;52.142;11.618;2022-09-24T01:28:51;17.70;45.00
2749;DHT22;1382;52.142;11.618;2022-09-24T01:31:27;17.60;44.90
2749;DHT22;1382;52.142;11.618;2022-09-24T01:33:58;17.60;44.90
2749;DHT22;1382;52.142;11.618;2022-09-24T01:36:27;17.60;44.80
2749;DHT22;1382;52.142;11.618;2022-09-24T01:38:56;17.60;44.90
2749;DHT22;1382;52.142;11.618;2022-09-24T01:41:24;17.60;44.90
2749;DHT22;1382;52.142;11.618;2022-09-24T01:43:50;17.60;44.90
2749;DHT22;1382;52.142;11.618;2022-09-24T01:46:18;17.60;45.10
2749;DHT22;1382;52.142;11.618;2022-09-24T01:48:47;17.60;45.00
2749;DHT22;1382;52.142;11.618;2022-09-24T01:51:18;17.70;45.20
2749;DHT22;1382;52.142;11.618;2022-09-24T01:53:49;17.60;45.40
2749;DHT22;1382;52.142;11.618;2022-09-24T01:56:21;17.70;45.40
2749;DHT22;1382;52.142;11.618;2022-09-24T01:58:52;17.60;45.70
2749;DHT22;1382;52.142;11.618;2022-09-24T02:01:29;17.70;45.80
2749;DHT22;1382;52.142;11.618;2022-09-24T02:04:05;17.50;45.50
2749;DHT22;1382;52.142;11.618;2022-09-24T02:06:39;17.60;45.70
2749;DHT22;1382;52.142;11.618;2022-09-24T02:09:30;17.70;45.50
2749;DHT22;1382;52.142;11.618;2022-09-24T02:11:57;17.50;45.50
2749;DHT22;1382;52.142;11.618;2022-09-24T02:14:27;17.50;45.50
2749;DHT22;1382;52.142;11.618;2022-09-24T02:16:55;17.50;45.40
2749;DHT22;1382;52.142;11.618;2022-09-24T02:19:27;17.50;45.40
2749;DHT22;1382;52.142;11.618;2022-09-24T02:21:56;17.60;46.10
2749;DHT22;1382;52.142;11.618;2022-09-24T02:24:27;17.40;45.20
2749;DHT22;1382;52.142;11.618;2022-09-24T02:26:55;17.60;45.40
2749;DHT22;1382;52.142;11.618;2022-09-24T02:29:22;17.40;45.10
2749;DHT22;1382;52.142;11.618;2022-09-24T02:31:52;17.40;45.30
2749;DHT22;1382;52.142;11.618;2022-09-24T02:34:26;17.40;45.70
2749;DHT22;1382;52.142;11.618;2022-09-24T02:36:58;17.40;45.90
2749;DHT22;1382;52.142;11.618;2022-09-24T02:39:25;17.30;45.60
2749;DHT22;1382;52.142;11.618;2022-09-24T02:41:53;17.40;45.90
2749;DHT22;1382;52.142;11.618;2022-09-24T02:44:20;17.50;45.70
2749;DHT22;1382;52.142;11.618;2022-09-24T02:46:47;17.50;46.10
2749;DHT22;1382;52.142;11.618;2022-09-24T02:49:14;17.30;46.10
2749;DHT22;1382;52.142;11.618;2022-09-24T02:51:43;17.30;45.80
2749;DHT22;1382;52.142;11.618;2022-09-24T02:54:10;17.40;45.40
2749;DHT22;1382;52.142;11.618;2022-09-24T02:56:38;17.30;45.90
2749;DHT22;1382;52.142;11.618;2022-09-24T02:59:05;17.30;45.90
2749;DHT22;1382;52.142;11.618;2022-09-24T03:01:33;17.30;46.20
2749;DHT22;1382;52.142;11.618;2022-09-24T03:04:01;17.30;45.90
2749;DHT22;1382;52.142;11.618;2022-09-24T03:06:27;17.30;46.80
2749;DHT22;1382;52.142;11.618;2022-09-24T03:08:56;17.40;45.90
2749;DHT22;1382;52.142;11.618;2022-09-24T03:11:23;17.30;46.10
2749;DHT22;1382;52.142;11.618;2022-09-24T03:13:51;17.20;45.60
2749;DHT22;1382;52.142;11.618;2022-09-24T03:16:18;17.20;45.70
2749;DHT22;1382;52.142;11.618;2022-09-24T03:18:45;17.20;45.80
2749;DHT22;1382;52.142;11.618;2022-09-24T03:21:13;17.20;45.80
2749;DHT22;1382;52.142;11.618;2022-09-24T03:23:40;17.10;46.10
2749;DHT22;1382;52.142;11.618;2022-09-24T03:26:09;17.20;46.20
2749;DHT22;1382;52.142;11.618;2022-09-24T03:28:35;17.10;46.10
2749;DHT22;1382;52.142;11.618;2022-09-24T03:31:03;17.10;46.00
2749;DHT22;1382;52.142;11.618;2022-09-24T03:33:32;17.10;45.80
2749;DHT22;1382;52.142;11.618;2022-09-24T03:36:01;17.00;45.50
2749;DHT22;1382;52.142;11.618;2022-09-24T03:38:29;17.00;45.50
2749;DHT22;1382;52.142;11.618;2022-09-24T03:40:57;17.00;45.30
2749;DHT22;1382;52.142;11.618;2022-09-24T03:43:25;17.00;45.30
2749;DHT22;1382;52.142;11.618;2022-09-24T03:45:52;16.90;45.50
2749;DHT22;1382;52.142;11.618;2022-09-24T03:48:21;16.90;45.40
2749;DHT22;1382;52.142;11.618;2022-09-24T03:50:48;16.90;45.60
2749;DHT22;1382;52.142;11.618;2022-09-24T03:53:16;16.90;45.70
2749;DHT22;1382;52.142;11.618;2022-09-24T03:55:44;17.00;45.60
2749;DHT22;1382;52.142;11.618;2022-09-24T03:58:11;16.80;45.60
2749;DHT22;1382;52.142;11.618;2022-09-24T04:00:40;16.80;45.70
2749;DHT22;1382;52.142;11.618;2022-09-24T04:03:07;16.80;46.10
2749;DHT22;1382;52.142;11.618;2022-09-24T04:05:34;16.80;46.00
2749;DHT22;1382;52.142;11.618;2022-09-24T04:08:03;16.80;46.00
2749;DHT22;1382;52.142;11.618;2022-09-24T04:10:30;16.80;46.00
2749;DHT22;1382;52.142;11.618;2022-09-24T04:12:57;16.70;45.70
2749;DHT22;1382;52.142;11.618;2022-09-24T04:15:24;16.80;45.80
2749;DHT22;1382;52.142;11.618;2022-09-24T04:17:54;16.70;45.80
2749;DHT22;1382;52.142;11.618;2022-09-24T04:20:22;16.70;45.80
2749;DHT22;1382;52.142;11.618;2022-09-24T04:22:49;16.70;45.90
2749;DHT22;1382;52.142;11.618;2022-09-24T04:25:17;16.70;46.10
2749;DHT22;1382;52.142;11.618;2022-09-24T04:27:44;16.70;46.00
2749;DHT22;1382;52.142;11.618;2022-09-24T04:30:13;16.70;46.40
2749;DHT22;1382;52.142;11.618;2022-09-24T04:32:40;16.70;46.10
2749;DHT22;1382;52.142;11.618;2022-09-24T04:35:09;16.80;46.00
2749;DHT22;1382;52.142;11.618;2022-09-24T04:37:36;16.80;45.80
2749;DHT22;1382;52.142;11.618;2022-09-24T04:40:04;16.60;45.60
2749;DHT22;1382;52.142;11.618;2022-09-24T04:42:31;16.60;46.00
2749;DHT22;1382;52.142;11.618;2022-09-24T04:44:58;16.60;47.30
2749;DHT22;1382;52.142;11.618;2022-09-24T04:47:24;16.60;47.60
2749;DHT22;1382;52.142;11.618;2022-09-24T04:49:51;16.60;47.00
2749;DHT22;1382;52.142;11.618;2022-09-24T04:52:19;16.60;46.40
2749;DHT22;1382;52.142;11.618;2022-09-24T04:54:46;16.60;47.60
2749;DHT22;1382;52.142;11.618;2022-09-24T04:57:13;16.50;47.60
2749;DHT22;1382;52.142;11.618;2022-09-24T04:59:40;16.70;47.20
2749;DHT22;1382;52.142;11.618;2022-09-24T05:02:08;16.70;47.10
2749;DHT22;1382;52.142;11.618;2022-09-24T05:04:35;16.50;46.60
2749;DHT22;1382;52.142;11.618;2022-09-24T05:07:02;16.50;46.80
2749;DHT22;1382;52.142;11.618;2022-09-24T05:09:31;16.50;46.50
2749;DHT22;1382;52.142;11.618;2022-09-24T05:11:58;16.50;46.30
2749;DHT22;1382;52.142;11.618;2022-09-24T05:14:25;16.70;46.50
2749;DHT22;1382;52.142;11.618;2022-09-24T05:16:51;16.60;46.30
2749;DHT22;1382;52.142;11.618;2022-09-24T05:19:19;16.60;46.00
2749;DHT22;1382;52.142;11.618;2022-09-24T05:21:45;16.60;45.80
2749;DHT22;1382;52.142;11.618;2022-09-24T05:24:12;16.50;45.80
2749;DHT22;1382;52.142;11.618;2022-09-24T05:26:41;16.40;45.80
2749;DHT22;1382;52.142;11.618;2022-09-24T05:29:08;16.50;46.80
2749;DHT22;1382;52.142;11.618;2022-09-24T05:31:35;16.50;46.90
2749;DHT22;1382;52.142;11.618;2022-09-24T05:34:01;16.40;46.90
2749;DHT22;1382;52.142;11.618;2022-09-24T05:36:28;16.60;47.10
2749;DHT22;1382;52.142;11.618;2022-09-24T05:38:55;16.40;46.90
2749;DHT22;1382;52.142;11.618;2022-09-24T05:41:22;16.40;47.40
2749;DHT22;1382;52.142;11.618;2022-09-24T05:43:50;16.60;47.80
2749;DHT22;1382;52.142;11.618;2022-09-24T05:46:17;16.60;47.70
2749;DHT22;1382;52.142;11.618;2022-09-24T05:48:44;16.40;47.10
2749;DHT22;1382;52.142;11.618;2022-09-24T05:51:11;16.40;46.70
2749;DHT22;1382;52.142;11.618;2022-09-24T05:53:38;16.40;46.70
2749;DHT22;1382;52.142;11.618;2022-09-24T05:56:05;16.40;46.50
2749;DHT22;1382;52.142;11.618;2022-09-24T05:58:32;16.40;46.60
2749;DHT22;1382;52.142;11.618;2022-09-24T06:01:00;16.40;46.40
2749;DHT22;1382;52.142;11.618;2022-09-24T06:03:27;16.40;46.30
2749;DHT22;1382;52.142;11.618;2022-09-24T06:05:54;16.40;46.10
2749;DHT22;1382;52.142;11.618;2022-09-24T06:08:23;16.40;46.30
2749;DHT22;1382;52.142;11.618;2022-09-24T06:10:49;16.50;46.60
2749;DHT22;1382;52.142;11.618;2022-09-24T06:13:18;16.40;46.60
2749;DHT22;1382;52.142;11.618;2022-09-24T06:15:45;16.40;46.00
2749;DHT22;1382;52.142;11.618;2022-09-24T06:18:13;16.40;45.90
2749;DHT22;1382;52.142;11.618;2022-09-24T06:20:40;16.50;46.10
2749;DHT22;1382;52.142;11.618;2022-09-24T06:23:07;16.40;46.10
2749;DHT22;1382;52.142;11.618;2022-09-24T06:25:34;16.40;46.40
2749;DHT22;1382;52.142;11.618;2022-09-24T06:28:03;16.60;46.40
2749;DHT22;1382;52.142;11.618;2022-09-24T06:30:32;16.50;47.10
2749;DHT22;1382;52.142;11.618;2022-09-24T06:33:03;16.50;47.10
2749;DHT22;1382;52.142;11.618;2022-09-24T06:35:32;16.50;48.20
2749;DHT22;1382;52.142;11.618;2022-09-24T06:37:59;16.50;48.20
2749;DHT22;1382;52.142;11.618;2022-09-24T06:40:26;16.50;47.60
2749;DHT22;1382;52.142;11.618;2022-09-24T06:43:01;16.50;47.40
2749;DHT22;1382;52.142;11.618;2022-09-24T06:45:28;16.70;48.60
2749;DHT22;1382;52.142;11.618;2022-09-24T06:47:56;16.60;48.10
2749;DHT22;1382;52.142;11.618;2022-09-24T06:50:24;16.70;47.80
2749;DHT22;1382;52.142;11.618;2022-09-24T06:52:54;16.70;48.10
2749;DHT22;1382;52.142;11.618;2022-09-24T06:55:21;16.60;48.10
2749;DHT22;1382;52.142;11.618;2022-09-24T06:57:48;16.60;47.80
2749;DHT22;1382;52.142;11.618;2022-09-24T07:00:15;16.80;47.90
2749;DHT22;1382;52.142;11.618;2022-09-24T07:02:42;16.70;48.60
2749;DHT22;1382;52.142;11.618;2022-09-24T07:05:09;16.70;47.90
2749;DHT22;1382;52.142;11.618;2022-09-24T07:07:38;16.70;47.90
2749;DHT22;1382;52.142;11.618;2022-09-24T07:10:07;16.90;48.70
2749;DHT22;1382;52.142;11.618;2022-09-24T07:12:34;16.80;48.40
2749;DHT22;1382;52.142;11.618;2022-09-24T07:15:01;16.80;47.90
2749;DHT22;1382;52.142;11.618;2022-09-24T07:17:28;16.80;47.60
2749;DHT22;1382;52.142;11.618;2022-09-24T07:19:59;16.80;48.10
2749;DHT22;1382;52.142;11.618;2022-09-24T07:22:27;16.80;47.60
2749;DHT22;1382;52.142;11.618;2022-09-24T07:24:53;16.80;47.50
2749;DHT22;1382;52.142;11.618;2022-09-24T07:27:22;16.90;47.40
2749;DHT22;1382;52.142;11.618;2022-09-24T07:29:49;16.90;48.10
2749;DHT22;1382;52.142;11.618;2022-09-24T07:32:16;16.90;48.40
2749;DHT22;1382;52.142;11.618;2022-09-24T07:34:44;17.00;47.70
2749;DHT22;1382;52.142;11.618;2022-09-24T07:37:11;17.00;47.00
2749;DHT22;1382;52.142;11.618;2022-09-24T07:39:38;17.00;47.40
2749;DHT22;1382;52.142;11.618;2022-09-24T07:42:05;17.00;47.00
2749;DHT22;1382;52.142;11.618;2022-09-24T07:44:33;17.10;47.40
2749;DHT22;1382;52.142;11.618;2022-09-24T07:47:00;17.10;47.10
2749;DHT22;1382;52.142;11.618;2022-09-24T07:49:27;17.10;46.90
2749;DHT22;1382;52.142;11.618;2022-09-24T07:51:54;17.10;46.90
2749;DHT22;1382;52.142;11.618;2022-09-24T07:54:20;17.10;47.20
2749;DHT22;1382;52.142;11.618;2022-09-24T07:56:47;17.20;47.20
2749;DHT22;1382;52.142;11.618;2022-09-24T07:59:14;17.20;46.90
2749;DHT22;1382;52.142;11.618;2022-09-24T08:01:42;17.20;46.90
2749;DHT22;1382;52.142;11.618;2022-09-24T08:04:09;17.20;47.10
2749;DHT22;1382;52.142;11.618;2022-09-24T08:06:37;17.30;47.10
2749;DHT22;1382;52.142;11.618;2022-09-24T08:09:09;17.40;47.20
2749;DHT22;1382;52.142;11.618;2022-09-24T08:11:36;17.30;47.10
2749;DHT22;1382;52.142;11.618;2022-09-24T08:14:03;17.30;47.30
2749;DHT22;1382;52.142;11.618;2022-09-24T08:16:30;17.40;47.50
2749;DHT22;1382;52.142;11.618;2022-09-24T08:18:58;17.40;47.70
2749;DHT22;1382;52.142;11.618;2022-09-24T08:21:25;17.40;47.70
2749;DHT22;1382;52.142;11.618;2022-09-24T08:23:52;17.50;48.20
2749;DHT22;1382;52.142;11.618;2022-09-24T08:26:18;17.50;48.30
2749;DHT22;1382;52.142;11.618;2022-09-24T08:28:48;17.60;48.40
2749;DHT22;1382;52.142;11.618;2022-09-24T08:31:15;17.60;48.30
2749;DHT22;1382;52.142;11.618;2022-09-24T08:33:42;17.60;48.00
2749;DHT22;1382;52.142;11.618;2022-09-24T08:36:10;17.60;47.80
2749;DHT22;1382;52.142;11.618;2022-09-24T08:38:37;17.60;48.30
2749;DHT22;1382;52.142;11.618;2022-09-24T08:41:14;17.70;48.10
2749;DHT22;1382;52.142;11.618;2022-09-24T08:43:50;17.70;49.10
2749;DHT22;1382;52.142;11.618;2022-09-24T08:46:24;17.70;49.30
2749;DHT22;1382;52.142;11.618;2022-09-24T08:48:52;17.80;48.50
2749;DHT22;1382;52.142;11.618;2022-09-24T08:51:21;17.80;48.70
2749;DHT22;1382;52.142;11.618;2022-09-24T08:53:52;17.70;48.80
2749;DHT22;1382;52.142;11.618;2022-09-24T08:56:24;17.70;48.90
2749;DHT22;1382;52.142;11.618;2022-09-24T08:58:56;17.80;49.50
2749;DHT22;1382;52.142;11.618;2022-09-24T09:01:32;17.80;49.10
2749;DHT22;1382;52.142;11.618;2022-09-24T09:04:05;17.80;49.50
2749;DHT22;1382;52.142;11.618;2022-09-24T09:06:50;17.90;49.70
2749;DHT22;1382;52.142;11.618;2022-09-24T09:09:22;17.90;49.70
2749;DHT22;1382;52.142;11.618;2022-09-24T09:11:51;17.90;48.70
2749;DHT22;1382;52.142;11.618;2022-09-24T09:14:22;17.90;48.60
2749;DHT22;1382;52.142;11.618;2022-09-24T09:16:52;18.00;48.90
2749;DHT22;1382;52.142;11.618;2022-09-24T09:19:25;18.10;48.60
2749;DHT22;1382;52.142;11.618;2022-09-24T09:21:57;18.00;48.70
2749;DHT22;1382;52.142;11.618;2022-09-24T09:24:34;18.10;49.10
2749;DHT22;1382;52.142;11.618;2022-09-24T09:27:08;18.10;49.60
2749;DHT22;1382;52.142;11.618;2022-09-24T09:29:36;18.20;49.20
2749;DHT22;1382;52.142;11.618;2022-09-24T09:32:09;18.30;48.70
2749;DHT22;1382;52.142;11.618;2022-09-24T09:34:49;18.30;48.90
2749;DHT22;1382;52.142;11.618;2022-09-24T09:37:24;18.40;48.70
2749;DHT22;1382;52.142;11.618;2022-09-24T09:39:58;18.50;48.60
2749;DHT22;1382;52.142;11.618;2022-09-24T09:42:29;18.50;48.70
2749;DHT22;1382;52.142;11.618;2022-09-24T09:44:59;18.60;48.90
2749;DHT22;1382;52.142;11.618;2022-09-24T09:47:35;18.70;48.60
2749;DHT22;1382;52.142;11.618;2022-09-24T09:50:05;18.80;48.80
2749;DHT22;1382;52.142;11.618;2022-09-24T09:52:37;18.80;48.60
2749;DHT22;1382;52.142;11.618;2022-09-24T09:55:05;18.90;48.30
2749;DHT22;1382;52.142;11.618;2022-09-24T09:57:33;19.00;48.50
2749;DHT22;1382;52.142;11.618;2022-09-24T10:00:01;19.10;48.30
2749;DHT22;1382;52.142;11.618;2022-09-24T10:02:30;19.20;48.30
2749;DHT22;1382;52.142;11.618;2022-09-24T10:05:00;19.30;48.40
2749;DHT22;1382;52.142;11.618;2022-09-24T10:07:27;19.40;48.30
2749;DHT22;1382;52.142;11.618;2022-09-24T10:10:01;19.50;48.30
2749;DHT22;1382;52.142;11.618;2022-09-24T10:12:28;19.60;48.20
2749;DHT22;1382;52.142;11.618;2022-09-24T10:14:57;19.80;48.20
2749;DHT22;1382;52.142;11.618;2022-09-24T10:17:28;19.80;48.20
2749;DHT22;1382;52.142;11.618;2022-09-24T10:19:56;19.90;48.40
2749;DHT22;1382;52.142;11.618;2022-09-24T10:22:24;20.00;48.10
2749;DHT22;1382;52.142;11.618;2022-09-24T10:24:53;20.10;47.90
2749;DHT22;1382;52.142;11.618;2022-09-24T10:27:29;20.20;48.10
2749;DHT22;1382;52.142;11.618;2022-09-24T10:29:57;20.40;48.50
2749;DHT22;1382;52.142;11.618;2022-09-24T10:32:25;20.60;47.80
2749;DHT22;1382;52.142;11.618;2022-09-24T10:34:54;20.50;47.50
2749;DHT22;1382;52.142;11.618;2022-09-24T10:37:21;20.70;47.30
2749;DHT22;1382;52.142;11.618;2022-09-24T10:39:56;20.80;47.10
2749;DHT22;1382;52.142;11.618;2022-09-24T10:42:25;20.90;47.20
2749;DHT22;1382;52.142;11.618;2022-09-24T10:44:53;21.00;46.70
2749;DHT22;1382;52.142;11.618;2022-09-24T10:47:25;21.10;46.70
2749;DHT22;1382;52.142;11.618;2022-09-24T10:50:24;21.10;46.70
2749;DHT22;1382;52.142;11.618;2022-09-24T10:52:53;21.20;46.50
2749;DHT22;1382;52.142;11.618;2022-09-24T10:55:38;21.30;46.60
2749;DHT22;1382;52.142;11.618;2022-09-24T10:58:17;21.40;46.70
2749;DHT22;1382;52.142;11.618;2022-09-24T11:00:50;21.60;46.70
2749;DHT22;1382;52.142;11.618;2022-09-24T11:03:46;21.50;46.50
2749;DHT22;1382;52.142;11.618;2022-09-24T11:06:24;21.80;46.20
2749;DHT22;1382;52.142;11.618;2022-09-24T11:09:06;21.80;46.00
2749;DHT22;1382;52.142;11.618;2022-09-24T11:11:44;21.90;46.40
2749;DHT22;1382;52.142;11.618;2022-09-24T11:14:25;22.00;46.30
2749;DHT22;1382;52.142;11.618;2022-09-24T11:17:04;22.10;46.00
2749;DHT22;1382;52.142;11.618;2022-09-24T11:19:56;22.20;45.20
2749;DHT22;1382;52.142;11.618;2022-09-24T11:22:34;22.30;45.20
2749;DHT22;1382;52.142;11.618;2022-09-24T11:25:19;22.40;45.60
2749;DHT22;1382;52.142;11.618;2022-09-24T11:27:58;22.60;45.60
2749;DHT22;1382;52.142;11.618;2022-09-24T11:30:31;22.70;45.70
2749;DHT22;1382;52.142;11.618;2022-09-24T11:33:12;22.90;45.60
2749;DHT22;1382;52.142;11.618;2022-09-24T11:36:11;23.00;45.50
2749;DHT22;1382;52.142;11.618;2022-09-24T11:38:52;23.10;45.10
2749;DHT22;1382;52.142;11.618;2022-09-24T11:41:34;23.20;45.10
2749;DHT22;1382;52.142;11.618;2022-09-24T11:44:22;23.40;44.60
2749;DHT22;1382;52.142;11.618;2022-09-24T11:47:04;23.50;44.70
2749;DHT22;1382;52.142;11.618;2022-09-24T11:49:50;23.60;44.20
2749;DHT22;1382;52.142;11.618;2022-09-24T11:52:24;23.80;44.90
2749;DHT22;1382;52.142;11.618;2022-09-24T11:54:59;23.90;44.70
2749;DHT22;1382;52.142;11.618;2022-09-24T11:57:29;24.10;44.80
2749;DHT22;1382;52.142;11.618;2022-09-24T11:59:59;24.20;44.00
2749;DHT22;1382;52.142;11.618;2022-09-24T12:02:31;24.40;45.00
2749;DHT22;1382;52.142;11.618;2022-09-24T12:05:02;24.50;44.60
2749;DHT22;1382;52.142;11.618;2022-09-24T12:07:35;24.70;44.80
2749;DHT22;1382;52.142;11.618;2022-09-24T12:10:20;24.90;44.80
2749;DHT22;1382;52.142;11.618;2022-09-24T12:12:49;25.00;44.10
2749;DHT22;1382;52.142;11.618;2022-09-24T12:15:19;25.20;44.40
2749;DHT22;1382;52.142;11.618;2022-09-24T12:17:51;25.30;42.90
2749;DHT22;1382;52.142;11.618;2022-09-24T12:20:21;25.50;44.20
2749;DHT22;1382;52.142;11.618;2022-09-24T12:22:53;25.60;43.70
2749;DHT22;1382;52.142;11.618;2022-09-24T12:25:22;25.80;43.20
2749;DHT22;1382;52.142;11.618;2022-09-24T12:27:49;25.90;42.90
2749;DHT22;1382;52.142;11.618;2022-09-24T12:30:25;26.10;42.10
2749;DHT22;1382;52.142;11.618;2022-09-24T12:32:59;26.20;41.30
2749;DHT22;1382;52.142;11.618;2022-09-24T12:35:35;26.40;41.60
2749;DHT22;1382;52.142;11.618;2022-09-24T12:38:06;26.50;40.00
2749;DHT22;1382;52.142;11.618;2022-09-24T12:43:29;26.60;39.80
2749;DHT22;1382;52.142;11.618;2022-09-24T12:46:01;26.80;40.80
2749;DHT22;1382;52.142;11.618;2022-09-24T12:48:33;26.70;40.50
2749;DHT22;1382;52.142;11.618;2022-09-24T12:51:03;26.80;40.90
2749;DHT22;1382;52.142;11.618;2022-09-24T12:53:34;26.80;40.40
2749;DHT22;1382;52.142;11.618;2022-09-24T12:56:03;26.80;39.70
2749;DHT22;1382;52.142;11.618;2022-09-24T12:58:36;26.80;40.40
2749;DHT22;1382;52.142;11.618;2022-09-24T13:01:11;26.80;39.70
2749;DHT22;1382;52.142;11.618;2022-09-24T13:03:40;26.80;39.50
2749;DHT22;1382;52.142;11.618;2022-09-24T13:06:28;26.80;39.30
2749;DHT22;1382;52.142;11.618;2022-09-24T13:08:55;26.80;38.50
2749;DHT22;1382;52.142;11.618;2022-09-24T13:11:28;26.70;39.60
2749;DHT22;1382;52.142;11.618;2022-09-24T13:14:17;26.70;39.10
2749;DHT22;1382;52.142;11.618;2022-09-24T13:16:47;26.70;39.10
2749;DHT22;1382;52.142;11.618;2022-09-24T13:19:28;26.60;39.00
2749;DHT22;1382;52.142;11.618;2022-09-24T13:21:59;26.60;39.10
2749;DHT22;1382;52.142;11.618;2022-09-24T13:24:30;26.40;39.40
2749;DHT22;1382;52.142;11.618;2022-09-24T13:27:08;26.40;38.80
2749;DHT22;1382;52.142;11.618;2022-09-24T13:29:37;26.40;39.30
2749;DHT22;1382;52.142;11.618;2022-09-24T13:32:04;26.20;39.80
2749;DHT22;1382;52.142;11.618;2022-09-24T13:34:33;26.20;39.60
2749;DHT22;1382;52.142;11.618;2022-09-24T13:37:02;26.10;39.70
2749;DHT22;1382;52.142;11.618;2022-09-24T13:39:35;26.10;39.50
2749;DHT22;1382;52.142;11.618;2022-09-24T13:42:13;26.20;39.30
2749;DHT22;1382;52.142;11.618;2022-09-24T13:44:46;26.00;39.70
2749;DHT22;1382;52.142;11.618;2022-09-24T13:47:26;26.10;39.70
2749;DHT22;1382;52.142;11.618;2022-09-24T13:50:02;25.90;39.40
2749;DHT22;1382;52.142;11.618;2022-09-24T13:52:34;25.80;39.80
2749;DHT22;1382;52.142;11.618;2022-09-24T13:55:10;25.90;40.00
2749;DHT22;1382;52.142;11.618;2022-09-24T13:57:42;25.80;39.70
2749;DHT22;1382;52.142;11.618;2022-09-24T14:00:14;25.70;39.30
2749;DHT22;1382;52.142;11.618;2022-09-24T14:02:45;25.70;39.40
2749;DHT22;1382;52.142;11.618;2022-09-24T14:05:18;25.60;39.80
2749;DHT22;1382;52.142;11.618;2022-09-24T14:07:55;25.50;40.20
2749;DHT22;1382;52.142;11.618;2022-09-24T14:10:23;25.50;40.20
2749;DHT22;1382;52.142;11.618;2022-09-24T14:12:59;25.40;40.30
2749;DHT22;1382;52.142;11.618;2022-09-24T14:15:25;25.40;40.00
2749;DHT22;1382;52.142;11.618;2022-09-24T14:17:55;25.30;40.40
2749;DHT22;1382;52.142;11.618;2022-09-24T14:20:25;25.30;40.20
2749;DHT22;1382;52.142;11.618;2022-09-24T14:22:52;25.20;40.10
2749;DHT22;1382;52.142;11.618;2022-09-24T14:25:24;25.10;40.10
2749;DHT22;1382;52.142;11.618;2022-09-24T14:27:53;25.10;39.80
2749;DHT22;1382;52.142;11.618;2022-09-24T14:30:22;25.10;40.00
2749;DHT22;1382;52.142;11.618;2022-09-24T14:32:51;25.00;40.00
2749;DHT22;1382;52.142;11.618;2022-09-24T14:35:24;24.90;39.60
2749;DHT22;1382;52.142;11.618;2022-09-24T14:38:00;24.90;39.80
2749;DHT22;1382;52.142;11.618;2022-09-24T14:40:28;24.90;39.50
2749;DHT22;1382;52.142;11.618;2022-09-24T14:42:56;24.80;40.30
2749;DHT22;1382;52.142;11.618;2022-09-24T14:45:27;24.80;39.90
2749;DHT22;1382;52.142;11.618;2022-09-24T14:47:59;24.80;40.60
2749;DHT22;1382;52.142;11.618;2022-09-24T14:50:31;24.70;39.80
2749;DHT22;1382;52.142;11.618;2022-09-24T14:52:59;24.60;39.80
2749;DHT22;1382;52.142;11.618;2022-09-24T14:55:36;24.60;40.00
2749;DHT22;1382;52.142;11.618;2022-09-24T14:58:03;24.50;39.90
2749;DHT22;1382;52.142;11.618;2022-09-24T15:00:35;24.60;40.30
2749;DHT22;1382;52.142;11.618;2022-09-24T15:03:04;24.40;40.30
2749;DHT22;1382;52.142;11.618;2022-09-24T15:05:32;24.30;40.30
2749;DHT22;1382;52.142;11.618;2022-09-24T15:08:25;24.30;40.50
2749;DHT22;1382;52.142;11.618;2022-09-24T15:10:54;24.30;40.50
2749;DHT22;1382;52.142;11.618;2022-09-24T15:13:23;24.10;40.50
2749;DHT22;1382;52.142;11.618;2022-09-24T15:16:01;24.10;40.80
2749;DHT22;1382;52.142;11.618;2022-09-24T15:18:28;24.10;40.70
2749;DHT22;1382;52.142;11.618;2022-09-24T15:20:55;24.00;40.90
2749;DHT22;1382;52.142;11.618;2022-09-24T15:23:23;23.90;40.90
2749;DHT22;1382;52.142;11.618;2022-09-24T15:25:49;23.90;41.10
2749;DHT22;1382;52.142;11.618;2022-09-24T15:28:16;23.90;41.00
2749;DHT22;1382;52.142;11.618;2022-09-24T15:30:43;23.80;41.10
2749;DHT22;1382;52.142;11.618;2022-09-24T15:33:11;23.80;41.40
2749;DHT22;1382;52.142;11.618;2022-09-24T15:35:38;23.70;41.00
2749;DHT22;1382;52.142;11.618;2022-09-24T15:38:07;23.70;41.20
2749;DHT22;1382;52.142;11.618;2022-09-24T15:40:39;23.70;41.40
2749;DHT22;1382;52.142;11.618;2022-09-24T15:43:15;23.70;41.40
2749;DHT22;1382;52.142;11.618;2022-09-24T15:45:43;23.60;41.30
2749;DHT22;1382;52.142;11.618;2022-09-24T15:48:10;23.60;41.10
2749;DHT22;1382;52.142;11.618;2022-09-24T15:50:37;23.50;41.10
2749;DHT22;1382;52.142;11.618;2022-09-24T15:53:05;23.50;41.20
2749;DHT22;1382;52.142;11.618;2022-09-24T15:55:33;23.40;41.40
2749;DHT22;1382;52.142;11.618;2022-09-24T15:58:09;23.40;41.10
2749;DHT22;1382;52.142;11.618;2022-09-24T16:00:44;23.40;41.00
2749;DHT22;1382;52.142;11.618;2022-09-24T16:03:16;23.30;41.40
2749;DHT22;1382;52.142;11.618;2022-09-24T16:05:44;23.30;41.20
2749;DHT22;1382;52.142;11.618;2022-09-24T16:08:10;23.20;41.30
2749;DHT22;1382;52.142;11.618;2022-09-24T16:10:37;23.20;41.50
2749;DHT22;1382;52.142;11.618;2022-09-24T16:13:05;23.30;41.60